Time;durP1;ratioP1;P1;durP2;ratioP2;P2;SDS_P1;SDS_P2;PMS_P1;PMS_P2;Temp;Humidity;BMP_temperature;BMP_pressure;BME280_temperature;BME280_humidity;BME280_pressure;Samples;Min_cycle;Max_cycle;Signal;HPM_P1;HPM_P2
2022/06/23 00:01:42;;;;;;;;;30.50;29.75;;;;;-147.17;100.00;-15917.19;5005907;28;51136;-61
2022/06/23 00:04:15;;;;;;;;;27.25;27.25;;;;;-147.17;100.00;-15917.19;5005400;28;51274;-61
2022/06/23 00:06:52;;;;;;;;;29.25;29.00;;;;;-147.17;100.00;-15917.19;5003991;28;51066;-59
2022/06/23 00:09:45;;;;;;;;;28.00;26.25;;;;;-147.17;100.00;-15917.19;5004170;28;52087;-62
2022/06/23 00:12:43;;;;;;;;;30.00;27.75;;;;;-147.17;100.00;-15917.19;5005803;28;51206;-61
2022/06/23 00:15:39;;;;;;;;;26.00;24.75;;;;;-147.17;100.00;-15917.19;4961878;28;51105;-61
2022/06/23 00:18:14;;;;;;;;;30.50;29.50;;;;;-147.17;100.00;-15917.19;4996695;28;51493;-62
2022/06/23 00:20:51;;;;;;;;;24.75;24.50;;;;;-147.17;100.00;-15917.19;5006433;28;51183;-61
2022/06/23 00:23:22;;;;;;;;;24.25;23.50;;;;;-147.17;100.00;-15917.19;5007337;28;51820;-61
2022/06/23 00:25:48;;;;;;;;;30.50;29.00;;;;;-147.17;100.00;-15917.19;5005548;28;51206;-61
2022/06/23 00:28:15;;;;;;;;;26.50;26.25;;;;;-147.17;100.00;-15917.19;5005338;28;51802;-61
2022/06/23 00:30:42;;;;;;;;;30.00;28.25;;;;;-147.17;100.00;-15917.19;5006182;28;51868;-62
2022/06/23 00:33:20;;;;;;;;;26.25;26.25;;;;;-147.17;100.00;-15917.19;5019523;28;51113;-61
2022/06/23 00:35:48;;;;;;;;;34.50;33.25;;;;;-147.17;100.00;-15917.19;5006326;28;51242;-61
2022/06/23 00:38:39;;;;;;;;;34.25;32.75;;;;;-147.17;100.00;-15917.19;5010185;28;51215;-61
2022/06/23 00:41:05;;;;;;;;;31.25;31.00;;;;;-147.17;100.00;-15917.19;4993988;28;52212;-61
2022/06/23 00:43:31;;;;;;;;;32.00;31.00;;;;;-147.17;100.00;-15917.19;4999603;28;51005;-62
2022/06/23 00:46:14;;;;;;;;;30.50;28.50;;;;;-147.17;100.00;-15917.19;5008101;28;51038;-62
2022/06/23 00:48:44;;;;;;;;;25.25;24.25;;;;;-147.17;100.00;-15917.19;5006003;28;51447;-62
2022/06/23 00:51:36;;;;;;;;;28.75;27.50;;;;;-147.17;100.00;-15917.19;5005867;28;52258;-62
2022/06/23 00:54:10;;;;;;;;;30.00;28.25;;;;;-147.17;100.00;-15917.19;5008797;28;51099;-62
2022/06/23 00:57:07;;;;;;;;;33.50;32.00;;;;;-147.17;100.00;-15917.19;4998966;28;51125;-62
2022/06/23 00:59:44;;;;;;;;;30.00;28.25;;;;;-147.17;100.00;-15917.19;5003321;28;51236;-61
2022/06/23 01:02:17;;;;;;;;;34.00;31.75;;;;;-147.17;100.00;-15917.19;5020196;28;52100;-62
2022/06/23 01:04:53;;;;;;;;;31.00;30.50;;;;;-147.17;100.00;-15917.19;5006594;28;51114;-61
2022/06/23 01:07:36;;;;;;;;;32.50;30.25;;;;;-147.17;100.00;-15917.19;5001494;28;51197;-60
2022/06/23 01:10:24;;;;;;;;;30.00;27.50;;;;;-147.17;100.00;-15917.19;5006297;28;51001;-62
2022/06/23 01:13:03;;;;;;;;;35.50;32.50;;;;;-147.17;100.00;-15917.19;5008739;28;51862;-61
2022/06/23 01:15:38;;;;;;;;;31.50;31.25;;;;;-147.17;100.00;-15917.19;5005587;28;51095;-61
2022/06/23 01:18:06;;;;;;;;;36.75;33.75;;;;;-147.17;100.00;-15917.19;5010644;28;51101;-61
2022/06/23 01:20:58;;;;;;;;;34.75;33.25;;;;;-147.17;100.00;-15917.19;4993596;28;50995;-61
2022/06/23 01:23:37;;;;;;;;;31.50;30.50;;;;;-147.17;100.00;-15917.19;5006656;28;53162;-61
2022/06/23 01:26:18;;;;;;;;;30.50;29.75;;;;;-147.17;100.00;-15917.19;5001085;28;51222;-60
2022/06/23 01:28:44;;;;;;;;;33.00;30.75;;;;;-147.17;100.00;-15917.19;4999071;28;51261;-61
2022/06/23 01:31:22;;;;;;;;;38.50;33.75;;;;;-147.17;100.00;-15917.19;5006194;28;51243;-61
2022/06/23 01:34:07;;;;;;;;;31.50;30.00;;;;;-147.17;100.00;-15917.19;5004825;28;51765;-61
2022/06/23 01:36:59;;;;;;;;;29.50;29.50;;;;;-147.17;100.00;-15917.19;5003839;28;51313;-61
2022/06/23 01:39:24;;;;;;;;;33.25;30.50;;;;;-147.17;100.00;-15917.19;5008308;28;51355;-61
2022/06/23 01:42:01;;;;;;;;;28.50;28.50;;;;;-147.17;100.00;-15917.19;4997049;28;50884;-61
2022/06/23 01:44:26;;;;;;;;;34.25;31.25;;;;;-147.17;100.00;-15917.19;5003358;28;50906;-60
2022/06/23 01:46:55;;;;;;;;;26.50;26.25;;;;;-147.17;100.00;-15917.19;5002111;28;51206;-61
2022/06/23 01:49:30;;;;;;;;;28.75;27.75;;;;;-147.17;100.00;-15917.19;5009920;28;51343;-61
2022/06/23 01:52:10;;;;;;;;;28.50;27.50;;;;;-147.17;100.00;-15917.19;5000211;28;51138;-62
2022/06/23 01:54:38;;;;;;;;;31.50;30.50;;;;;-147.17;100.00;-15917.19;5008699;28;51814;-62
2022/06/23 01:57:22;;;;;;;;;32.50;31.25;;;;;-147.17;100.00;-15917.19;4994072;28;51104;-62
2022/06/23 01:59:55;;;;;;;;;31.25;29.75;;;;;-147.17;100.00;-15917.19;5006035;28;51163;-61
2022/06/23 02:02:37;;;;;;;;;32.50;30.75;;;;;-147.17;100.00;-15917.19;5013209;28;50986;-61
2022/06/23 02:05:18;;;;;;;;;25.50;25.00;;;;;-147.17;100.00;-15917.19;5002257;28;51195;-62
2022/06/23 02:08:02;;;;;;;;;29.75;29.00;;;;;-147.17;100.00;-15917.19;5000274;28;51118;-61
2022/06/23 02:11:00;;;;;;;;;36.50;34.25;;;;;-147.17;100.00;-15917.19;5000472;28;51116;-61
2022/06/23 02:13:59;;;;;;;;;36.25;33.25;;;;;-147.17;100.00;-15917.19;5000086;28;51558;-61
2022/06/23 02:16:31;;;;;;;;;34.75;33.00;;;;;-147.17;100.00;-15917.19;5004182;28;51929;-61
2022/06/23 02:19:22;;;;;;;;;33.75;31.50;;;;;-147.17;100.00;-15917.19;4996113;28;51042;-61
2022/06/23 02:22:25;;;;;;;;;35.25;32.50;;;;;-147.17;100.00;-15917.19;4991701;28;51389;-61
2022/06/23 02:25:11;;;;;;;;;29.25;28.25;;;;;-147.17;100.00;-15917.19;4992449;28;51251;-62
2022/06/23 02:27:49;;;;;;;;;38.00;34.25;;;;;-147.17;100.00;-15917.19;5002916;28;51264;-60
2022/06/23 02:30:20;;;;;;;;;34.75;33.50;;;;;-147.17;100.00;-15917.19;5009126;28;51129;-60
2022/06/23 02:33:22;;;;;;;;;38.75;34.75;;;;;-147.17;100.00;-15917.19;5003615;28;51172;-61
2022/06/23 02:35:59;;;;;;;;;33.00;32.00;;;;;-147.17;100.00;-15917.19;4995242;28;50989;-61
2022/06/23 02:38:35;;;;;;;;;35.25;32.50;;;;;-147.17;100.00;-15917.19;4995300;28;52100;-61
2022/06/23 02:41:07;;;;;;;;;34.00;32.25;;;;;-147.17;100.00;-15917.19;4996165;28;51163;-61
2022/06/23 02:43:39;;;;;;;;;33.50;32.50;;;;;-147.17;100.00;-15917.19;5012969;28;51128;-62
2022/06/23 02:46:26;;;;;;;;;32.25;30.75;;;;;-147.17;100.00;-15917.19;5001489;28;51144;-61
2022/06/23 02:49:09;;;;;;;;;32.50;31.75;;;;;-147.17;100.00;-15917.19;4997587;28;52062;-61
2022/06/23 02:51:38;;;;;;;;;32.25;31.00;;;;;-147.17;100.00;-15917.19;5026320;28;51093;-62
2022/06/23 02:54:14;;;;;;;;;30.00;30.00;;;;;-147.17;100.00;-15917.19;5000050;28;51248;-62
2022/06/23 02:57:01;;;;;;;;;27.25;26.50;;;;;-147.17;100.00;-15917.19;5007085;28;50914;-61
2022/06/23 02:59:38;;;;;;;;;27.50;26.50;;;;;-147.17;100.00;-15917.19;4995424;28;51280;-61
2022/06/23 03:02:08;;;;;;;;;16.50;14.50;;;;;-147.17;100.00;-15917.19;5011804;28;50919;-62
2022/06/23 03:05:02;;;;;;;;;14.00;13.33;;;;;-147.17;100.00;-15917.19;5013611;28;50982;-61
2022/06/23 03:07:41;;;;;;;;;8.00;8.00;;;;;-147.17;100.00;-15917.19;4988178;28;51446;-62
2022/06/23 03:10:17;;;;;;;;;10.00;10.00;;;;;-147.17;100.00;-15917.19;5004358;28;51908;-62
2022/06/23 03:12:52;;;;;;;;;5.33;5.33;;;;;-147.17;100.00;-15917.19;4995021;28;51125;-63
2022/06/23 03:15:24;;;;;;;;;7.00;6.00;;;;;-147.17;100.00;-15917.19;4994882;28;51206;-61
2022/06/23 03:18:00;;;;;;;;;6.00;6.00;;;;;-147.17;100.00;-15917.19;5002301;28;51952;-61
2022/06/23 03:20:38;;;;;;;;;5.00;5.00;;;;;-147.17;100.00;-15917.19;4998211;28;52183;-61
2022/06/23 03:23:17;;;;;;;;;3.00;3.00;;;;;-147.17;100.00;-15917.19;5013641;28;51216;-61
2022/06/23 03:25:57;;;;;;;;;5.33;5.33;;;;;-147.17;100.00;-15917.19;5011754;28;50952;-61
2022/06/23 03:28:31;;;;;;;;;4.67;4.67;;;;;-147.17;100.00;-15917.19;5003458;28;51034;-61
2022/06/23 03:31:14;;;;;;;;;4.00;4.00;;;;;-147.17;100.00;-15917.19;5006743;28;50935;-62
2022/06/23 03:34:02;;;;;;;;;4.00;4.00;;;;;-147.17;100.00;-15917.19;5005297;28;51676;-62
2022/06/23 03:36:27;;;;;;;;;6.00;6.00;;;;;-147.17;100.00;-15917.19;5002875;28;51271;-62
2022/06/23 03:42:08;;;;;;;;;5.67;5.00;;;;;-147.17;100.00;-15917.19;5012045;28;51167;-62
2022/06/23 03:45:01;;;;;;;;;5.33;5.00;;;;;-147.17;100.00;-15917.19;5013180;28;51159;-62
2022/06/23 03:47:42;;;;;;;;;4.33;4.33;;;;;-147.17;100.00;-15917.19;4984856;28;50835;-61
2022/06/23 03:50:31;;;;;;;;;5.00;5.00;;;;;-147.17;100.00;-15917.19;4998523;28;51280;-62
2022/06/23 03:53:18;;;;;;;;;4.00;4.00;;;;;-147.17;100.00;-15917.19;5011653;28;51098;-61
2022/06/23 03:55:57;;;;;;;;;8.33;7.00;;;;;-147.17;100.00;-15917.19;5002755;28;51119;-62
2022/06/23 03:58:28;;;;;;;;;6.00;5.67;;;;;-147.17;100.00;-15917.19;5000131;28;51335;-61
2022/06/23 04:01:04;;;;;;;;;3.33;3.33;;;;;-147.17;100.00;-15917.19;5013361;28;51178;-62
2022/06/23 04:03:57;;;;;;;;;5.00;5.00;;;;;-147.17;100.00;-15917.19;4995565;28;52705;-63
2022/06/23 04:06:38;;;;;;;;;4.00;4.00;;;;;-147.17;100.00;-15917.19;5004179;28;51109;-63
2022/06/23 04:09:06;;;;;;;;;6.00;4.67;;;;;-147.17;100.00;-15917.19;5012919;28;51251;-62
2022/06/23 04:11:46;;;;;;;;;4.67;4.00;;;;;-147.17;100.00;-15917.19;5010096;28;51076;-63
2022/06/23 04:14:30;;;;;;;;;6.00;6.00;;;;;-147.17;100.00;-15917.19;5011686;28;51957;-62
2022/06/23 04:17:10;;;;;;;;;5.33;5.33;;;;;-147.17;100.00;-15917.19;5005705;28;51148;-62
2022/06/23 04:19:37;;;;;;;;;4.67;4.67;;;;;-147.17;100.00;-15917.19;4995948;28;51293;-62
2022/06/23 04:22:28;;;;;;;;;4.00;4.00;;;;;-147.17;100.00;-15917.19;4993728;28;51285;-62
2022/06/23 04:25:01;;;;;;;;;7.67;6.00;;;;;-147.17;100.00;-15917.19;4981827;28;51958;-63
2022/06/23 04:27:37;;;;;;;;;4.33;4.33;;;;;-147.17;100.00;-15917.19;5003886;28;51117;-62
2022/06/23 04:30:04;;;;;;;;;5.00;4.33;;;;;-147.17;100.00;-15917.19;5010311;28;51108;-63
2022/06/23 04:32:34;;;;;;;;;4.33;4.33;;;;;-147.17;100.00;-15917.19;4999278;28;51434;-62
2022/06/23 04:35:14;;;;;;;;;5.00;4.00;;;;;-147.17;100.00;-15917.19;5003801;28;51228;-62
2022/06/23 04:38:00;;;;;;;;;6.00;6.00;;;;;-147.17;100.00;-15917.19;5004598;28;51240;-62
2022/06/23 04:40:37;;;;;;;;;6.00;5.67;;;;;-147.17;100.00;-15917.19;5010821;28;51076;-62
2022/06/23 04:43:12;;;;;;;;;4.67;4.67;;;;;-147.17;100.00;-15917.19;4995583;28;51324;-64
2022/06/23 04:46:06;;;;;;;;;5.00;4.00;;;;;-147.17;100.00;-15917.19;5012194;28;51848;-63
2022/06/23 04:48:41;;;;;;;;;7.67;6.67;;;;;-147.17;100.00;-15917.19;5003654;28;51271;-63
2022/06/23 04:51:30;;;;;;;;;4.00;4.00;;;;;-147.17;100.00;-15917.19;5003469;28;51282;-63
2022/06/23 04:53:58;;;;;;;;;6.33;6.00;;;;;-147.17;100.00;-15917.19;5006109;28;52241;-63
2022/06/23 04:56:41;;;;;;;;;4.67;4.67;;;;;-147.17;100.00;-15917.19;5006902;28;51167;-63
2022/06/23 04:59:30;;;;;;;;;5.33;5.00;;;;;-147.17;100.00;-15917.19;5011169;28;51230;-63
2022/06/23 05:02:00;;;;;;;;;4.33;4.33;;;;;-147.17;100.00;-15917.19;5009423;28;51136;-63
2022/06/23 05:04:40;;;;;;;;;3.33;3.00;;;;;-147.17;100.00;-15917.19;5005608;28;51239;-63
2022/06/23 05:07:23;;;;;;;;;5.00;5.00;;;;;-147.17;100.00;-15917.19;5010739;28;51062;-63
2022/06/23 05:09:54;;;;;;;;;4.00;3.00;;;;;-147.17;100.00;-15917.19;5001415;28;51231;-63
2022/06/23 05:12:42;;;;;;;;;5.33;5.33;;;;;-147.17;100.00;-15917.19;5005834;28;51124;-63
2022/06/23 05:15:31;;;;;;;;;5.67;5.00;;;;;-147.17;100.00;-15917.19;4994289;28;51391;-62
2022/06/23 05:18:25;;;;;;;;;5.00;5.00;;;;;-147.17;100.00;-15917.19;5000819;28;51708;-63
2022/06/23 05:21:00;;;;;;;;;6.00;5.00;;;;;-147.17;100.00;-15917.19;4996227;28;51068;-63
2022/06/23 05:23:30;;;;;;;;;7.33;6.67;;;;;-147.17;100.00;-15917.19;5005090;28;50941;-62
2022/06/23 05:26:05;;;;;;;;;6.00;5.67;;;;;-147.17;100.00;-15917.19;4999445;28;51143;-62
2022/06/23 05:28:36;;;;;;;;;6.00;6.00;;;;;-147.17;100.00;-15917.19;4999801;28;52053;-62
2022/06/23 05:31:07;;;;;;;;;5.00;5.00;;;;;-147.17;100.00;-15917.19;5004215;28;52638;-62
2022/06/23 05:33:41;;;;;;;;;3.00;3.00;;;;;-147.17;100.00;-15917.19;5006114;28;51283;-62
2022/06/23 05:36:15;;;;;;;;;5.00;5.00;;;;;-147.17;100.00;-15917.19;5007993;28;51274;-64
2022/06/23 05:38:50;;;;;;;;;4.00;4.00;;;;;-147.17;100.00;-15917.19;5008914;28;51096;-62
2022/06/23 05:41:26;;;;;;;;;5.00;5.00;;;;;-147.17;100.00;-15917.19;5003028;28;51059;-62
2022/06/23 05:43:54;;;;;;;;;6.33;5.00;;;;;-147.17;100.00;-15917.19;5011596;28;51156;-61
2022/06/23 05:46:23;;;;;;;;;5.67;5.00;;;;;-147.17;100.00;-15917.19;5010317;28;51306;-61
2022/06/23 05:49:00;;;;;;;;;5.00;5.00;;;;;-147.17;100.00;-15917.19;5011119;28;51186;-62
2022/06/23 05:51:39;;;;;;;;;6.33;5.33;;;;;-147.17;100.00;-15917.19;5010200;28;51153;-61
2022/06/23 05:54:40;;;;;;;;;7.67;7.00;;;;;-147.17;100.00;-15917.19;5000193;28;51117;-62
2022/06/23 05:57:34;;;;;;;;;6.33;5.33;;;;;-147.17;100.00;-15917.19;4982418;28;51383;-62
2022/06/23 06:00:07;;;;;;;;;6.00;5.33;;;;;-147.17;100.00;-15917.19;4981493;28;51111;-61
2022/06/23 06:02:46;;;;;;;;;5.33;5.00;;;;;-147.17;100.00;-15917.19;4998404;28;51125;-61
2022/06/23 06:05:23;;;;;;;;;6.67;6.67;;;;;-147.17;100.00;-15917.19;5014306;28;50989;-61
2022/06/23 06:07:49;;;;;;;;;6.00;6.00;;;;;-147.17;100.00;-15917.19;5008881;28;51254;-61
2022/06/23 06:10:22;;;;;;;;;7.00;7.00;;;;;-147.17;100.00;-15917.19;5013915;28;51796;-62
2022/06/23 06:12:50;;;;;;;;;7.33;7.33;;;;;-147.17;100.00;-15917.19;5016290;28;51025;-63
2022/06/23 06:15:20;;;;;;;;;6.00;6.00;;;;;-147.17;100.00;-15917.19;5015711;28;51395;-62
2022/06/23 06:17:48;;;;;;;;;8.00;8.00;;;;;-147.17;100.00;-15917.19;5008270;28;51455;-62
2022/06/23 06:20:14;;;;;;;;;11.67;9.67;;;;;-147.17;100.00;-15917.19;5011227;28;52483;-62
2022/06/23 06:22:56;;;;;;;;;8.33;8.33;;;;;-147.17;100.00;-15917.19;5006682;28;51130;-61
2022/06/23 06:25:31;;;;;;;;;8.00;8.00;;;;;-147.17;100.00;-15917.19;5012609;28;51214;-62
2022/06/23 06:28:08;;;;;;;;;8.00;8.00;;;;;-147.17;100.00;-15917.19;5000760;28;51098;-62
2022/06/23 06:30:38;;;;;;;;;9.00;8.00;;;;;-147.17;100.00;-15917.19;5002760;28;51117;-62
2022/06/23 06:33:04;;;;;;;;;8.00;7.33;;;;;-147.17;100.00;-15917.19;5008432;28;51124;-62
2022/06/23 06:35:38;;;;;;;;;10.67;9.67;;;;;-147.17;100.00;-15917.19;4995081;28;51023;-62
2022/06/23 06:38:15;;;;;;;;;7.00;6.67;;;;;-147.17;100.00;-15917.19;5004654;28;51121;-62
2022/06/23 06:40:44;;;;;;;;;13.00;12.33;;;;;-147.17;100.00;-15917.19;5007744;28;52019;-63
2022/06/23 06:43:15;;;;;;;;;13.00;12.67;;;;;-147.17;100.00;-15917.19;5005375;28;50990;-62
2022/06/23 06:45:41;;;;;;;;;7.00;6.33;;;;;-147.17;100.00;-15917.19;5012948;28;51038;-62
2022/06/23 06:48:18;;;;;;;;;8.33;8.00;;;;;-147.17;100.00;-15917.19;5006586;28;51009;-62
2022/06/23 06:50:47;;;;;;;;;8.00;7.67;;;;;-147.17;100.00;-15917.19;5007776;28;51215;-61
2022/06/23 06:53:24;;;;;;;;;6.67;6.33;;;;;-147.17;100.00;-15917.19;5013021;28;50922;-63
2022/06/23 06:55:57;;;;;;;;;7.67;7.00;;;;;-147.17;100.00;-15917.19;5011794;28;51266;-62
2022/06/23 06:58:33;;;;;;;;;5.67;5.00;;;;;-147.17;100.00;-15917.19;4994552;28;51150;-62
2022/06/23 07:01:08;;;;;;;;;9.00;8.00;;;;;-147.17;100.00;-15917.19;5008073;28;52288;-61
2022/06/23 07:03:37;;;;;;;;;7.00;6.00;;;;;-147.17;100.00;-15917.19;5011693;28;51081;-62
2022/06/23 07:06:15;;;;;;;;;8.33;8.00;;;;;-147.17;100.00;-15917.19;5012259;28;51162;-61
2022/06/23 07:09:11;;;;;;;;;7.33;7.00;;;;;-147.17;100.00;-15917.19;5012847;28;50990;-61
2022/06/23 07:11:43;;;;;;;;;8.00;6.67;;;;;-147.17;100.00;-15917.19;5001742;28;51179;-65
2022/06/23 07:14:11;;;;;;;;;8.00;7.00;;;;;-147.17;100.00;-15917.19;5003498;28;51211;-62
2022/06/23 07:16:53;;;;;;;;;7.00;6.00;;;;;-147.17;100.00;-15917.19;5012927;28;51239;-62
2022/06/23 07:19:33;;;;;;;;;7.67;5.67;;;;;-147.17;100.00;-15917.19;5003216;28;51261;-63
2022/06/23 07:22:21;;;;;;;;;4.33;4.00;;;;;-147.17;100.00;-15917.19;5010760;28;52423;-63
2022/06/23 07:24:50;;;;;;;;;7.00;7.00;;;;;-147.17;100.00;-15917.19;5012098;28;51227;-63
2022/06/23 07:27:33;;;;;;;;;9.00;8.33;;;;;-147.17;100.00;-15917.19;5011018;28;51374;-63
2022/06/23 07:30:04;;;;;;;;;7.00;6.00;;;;;-147.17;100.00;-15917.19;5010807;28;50919;-63
2022/06/23 07:32:45;;;;;;;;;6.00;5.33;;;;;-147.17;100.00;-15917.19;5004848;28;51037;-63
2022/06/23 07:35:27;;;;;;;;;5.67;5.00;;;;;-147.17;100.00;-15917.19;5004532;28;51183;-62
2022/06/23 07:38:07;;;;;;;;;5.33;5.00;;;;;-147.17;100.00;-15917.19;5011581;28;51308;-62
2022/06/23 07:40:48;;;;;;;;;7.00;7.00;;;;;-147.17;100.00;-15917.19;5006925;28;51392;-62
2022/06/23 07:43:21;;;;;;;;;7.00;6.67;;;;;-147.17;100.00;-15917.19;5006039;28;51219;-62
2022/06/23 07:45:55;;;;;;;;;7.33;7.00;;;;;-147.17;100.00;-15917.19;5008052;28;52657;-62
2022/06/23 07:48:21;;;;;;;;;4.33;3.33;;;;;-147.17;100.00;-15917.19;5004793;28;51213;-62
2022/06/23 07:50:46;;;;;;;;;6.00;5.67;;;;;-147.17;100.00;-15917.19;5004657;28;51640;-62
2022/06/23 07:53:25;;;;;;;;;8.67;8.33;;;;;-147.17;100.00;-15917.19;5008197;28;52312;-62
2022/06/23 07:55:51;;;;;;;;;7.00;7.00;;;;;-147.17;100.00;-15917.19;5010209;28;51208;-62
2022/06/23 07:58:26;;;;;;;;;5.00;4.67;;;;;-147.17;100.00;-15917.19;5008166;28;51081;-62
2022/06/23 08:00:58;;;;;;;;;6.33;6.33;;;;;-147.17;100.00;-15917.19;5003089;28;51382;-62
2022/06/23 08:03:52;;;;;;;;;7.67;7.33;;;;;-147.17;100.00;-15917.19;5003257;28;51360;-63
2022/06/23 08:06:21;;;;;;;;;8.67;7.00;;;;;-147.17;100.00;-15917.19;5000004;28;51160;-63
2022/06/23 08:08:49;;;;;;;;;6.00;5.33;;;;;-147.17;100.00;-15917.19;5010775;28;51192;-63
2022/06/23 08:14:33;;;;;;;;;5.00;5.00;;;;;-147.17;100.00;-15917.19;5009837;28;51136;-62
2022/06/23 08:17:03;;;;;;;;;8.33;8.33;;;;;-147.17;100.00;-15917.19;5008956;28;51132;-62
2022/06/23 08:19:37;;;;;;;;;5.33;5.33;;;;;-147.17;100.00;-15917.19;5002101;28;51249;-63
2022/06/23 08:22:15;;;;;;;;;6.00;6.00;;;;;-147.17;100.00;-15917.19;5025068;28;51187;-63
2022/06/23 08:24:45;;;;;;;;;6.00;5.33;;;;;-147.17;100.00;-15917.19;5010051;28;51378;-62
2022/06/23 08:27:18;;;;;;;;;6.00;6.00;;;;;-147.17;100.00;-15917.19;5009696;28;51090;-63
2022/06/23 08:29:55;;;;;;;;;6.33;6.00;;;;;-147.17;100.00;-15917.19;5009379;28;51450;-63
2022/06/23 08:32:24;;;;;;;;;8.00;7.00;;;;;-147.17;100.00;-15917.19;5010160;28;51073;-63
2022/06/23 08:35:03;;;;;;;;;6.33;5.00;;;;;-147.17;100.00;-15917.19;5000037;28;51236;-63
2022/06/23 08:37:36;;;;;;;;;10.33;9.33;;;;;-147.17;100.00;-15917.19;5006314;28;51142;-62
2022/06/23 08:40:15;;;;;;;;;13.33;12.67;;;;;-147.17;100.00;-15917.19;5009357;28;51058;-63
2022/06/23 08:42:49;;;;;;;;;8.67;8.67;;;;;-147.17;100.00;-15917.19;5009667;28;50910;-62
2022/06/23 08:45:59;;;;;;;;;7.00;7.00;;;;;-147.17;100.00;-15917.19;5009105;28;51169;-63
2022/06/23 08:48:36;;;;;;;;;7.67;6.67;;;;;-147.17;100.00;-15915.72;4989265;28;51131;-62
2022/06/23 08:51:34;;;;;;;;;7.00;6.00;;;;;-147.17;100.00;-15172.50;4994334;28;51199;-63
2022/06/23 08:54:08;;;;;;;;;5.33;4.00;;;;;-147.17;100.00;-14181.31;5006873;28;51184;-63
2022/06/23 08:56:47;;;;;;;;;5.67;5.67;;;;;-147.17;100.00;-13437.75;5005100;28;50951;-63
2022/06/23 08:59:27;;;;;;;;;6.00;6.00;;;;;-147.17;100.00;-13189.88;5009003;28;51032;-63
2022/06/23 09:02:11;;;;;;;;;6.33;6.33;;;;;-147.17;100.00;-12694.06;5007691;28;51192;-67
2022/06/23 09:04:59;;;;;;;;;7.67;7.00;;;;;-147.17;100.00;-12198.19;5006018;28;51246;-67
2022/06/23 09:07:38;;;;;;;;;6.33;6.33;;;;;-147.17;100.00;-12198.19;5001733;28;53792;-64
2022/06/23 09:10:18;;;;;;;;;8.33;6.33;;;;;-147.17;100.00;-11950.22;5004976;28;51214;-61
2022/06/23 09:13:09;;;;;;;;;6.33;6.00;;;;;-147.17;100.00;-11950.22;5000207;28;50947;-66
2022/06/23 09:16:06;;;;;;;;;7.33;6.33;;;;;-147.17;100.00;-12198.19;5011407;28;51500;-65
2022/06/23 09:18:50;;;;;;;;;8.33;7.67;;;;;-147.17;100.00;-12198.19;5004114;28;51183;-66
2022/06/23 09:21:33;;;;;;;;;15.00;12.67;;;;;-147.17;100.00;-12694.06;5008189;28;51111;-65
2022/06/23 09:24:18;;;;;;;;;6.00;5.00;;;;;-147.17;100.00;-12941.97;5014561;28;51116;-66
2022/06/23 09:26:55;;;;;;;;;8.33;8.00;;;;;-147.17;100.00;-12694.06;5001133;28;51325;-64
2022/06/23 09:29:27;;;;;;;;;7.00;7.00;;;;;-147.17;100.00;-12694.06;4992437;28;51979;-64
2022/06/23 09:32:12;;;;;;;;;6.00;6.00;;;;;-147.17;100.00;-12694.06;5006558;28;51226;-66
2022/06/23 09:34:52;;;;;;;;;6.33;6.00;;;;;-147.17;100.00;-13189.88;5009044;28;51224;-64
2022/06/23 09:37:35;;;;;;;;;8.00;8.00;;;;;-147.17;100.00;-12941.97;5007206;28;51223;-65
2022/06/23 09:40:18;;;;;;;;;8.33;8.33;;;;;-147.17;100.00;-13189.88;5001464;28;51106;-66
2022/06/23 09:42:59;;;;;;;;;8.00;8.00;;;;;-147.17;100.00;-12694.06;5009818;28;51127;-63
2022/06/23 09:45:42;;;;;;;;;7.33;6.67;;;;;-147.17;100.00;-12694.06;5012265;28;51163;-64
2022/06/23 09:48:26;;;;;;;;;7.00;7.00;;;;;-147.17;100.00;-12694.06;5002368;28;50998;-65
2022/06/23 09:51:10;;;;;;;;;6.00;6.00;;;;;-147.17;100.00;-12446.13;5008781;28;51154;-65
2022/06/23 09:54:16;;;;;;;;;6.67;6.67;;;;;-147.17;100.00;-12694.06;5013104;28;51079;-65
2022/06/23 09:56:48;;;;;;;;;8.00;8.00;;;;;-147.17;100.00;-12941.97;4996386;28;51227;-66
2022/06/23 09:59:31;;;;;;;;;5.67;5.33;;;;;-147.17;100.00;-12446.13;5004267;28;51297;-67
2022/06/23 10:02:09;;;;;;;;;9.00;8.33;;;;;-147.17;100.00;-12446.13;5016961;28;51860;-66
2022/06/23 10:04:57;;;;;;;;;6.33;6.33;;;;;-147.17;100.00;-12694.06;5012350;28;51092;-66
2022/06/23 10:07:32;;;;;;;;;7.67;7.33;;;;;-147.17;100.00;-12446.13;4998629;28;51162;-66
2022/06/23 10:10:32;;;;;;;;;9.00;8.67;;;;;-147.17;100.00;-12694.06;5013175;28;51064;-66
2022/06/23 10:13:45;;;;;;;;;6.67;6.67;;;;;-147.17;100.00;-12446.13;5010249;28;51916;-65
2022/06/23 10:16:46;;;;;;;;;6.00;6.00;;;;;-147.17;100.00;-12198.19;5001157;28;51230;-66
2022/06/23 10:19:31;;;;;;;;;9.00;9.00;;;;;-147.17;100.00;-12198.19;5008231;28;51087;-65
2022/06/23 10:21:59;;;;;;;;;9.33;7.00;;;;;-147.17;100.00;-12198.19;5012965;28;51300;-66
2022/06/23 10:24:38;;;;;;;;;9.33;9.33;;;;;-147.17;100.00;-11702.25;5010351;28;51176;-65
2022/06/23 10:27:16;;;;;;;;;7.00;7.00;;;;;-147.17;100.00;-11702.25;5011151;28;51234;-64
2022/06/23 10:30:02;;;;;;;;;8.00;7.67;;;;;-147.17;100.00;-11206.22;5005688;28;51216;-65
2022/06/23 10:32:50;;;;;;;;;7.00;7.00;;;;;-147.17;100.00;-10214.00;5012558;28;51049;-65
2022/06/23 10:35:51;;;;;;;;;9.00;8.33;;;;;-147.17;100.00;-9221.53;5008786;28;51203;-64
2022/06/23 10:38:16;;;;;;;;;8.67;8.00;;;;;-147.17;100.00;-7980.59;5004621;28;51285;-64
2022/06/23 10:41:03;;;;;;;;;7.67;7.67;;;;;-147.17;100.00;-6987.56;5011857;28;51149;-64
2022/06/23 10:43:47;;;;;;;;;8.00;7.00;;;;;-147.17;100.00;-5994.25;5007200;28;51351;-65
2022/06/23 10:46:31;;;;;;;;;8.33;8.00;;;;;-147.17;100.00;-5497.50;5010653;28;51856;-66
2022/06/23 10:49:15;;;;;;;;;8.00;8.00;;;;;-147.17;100.00;-5000.69;5012964;28;51239;-66
2022/06/23 10:51:58;;;;;;;;;10.33;10.33;;;;;-147.17;100.00;-4255.34;4998527;28;50998;-66
2022/06/23 10:54:56;;;;;;;;;9.00;8.33;;;;;-147.17;100.00;-3509.84;5003957;28;50950;-66
2022/06/23 10:57:22;;;;;;;;;10.00;9.33;;;;;-147.17;100.00;-2515.66;4993642;28;51215;-73
2022/06/23 11:00:23;;;;;;;;;7.33;7.33;;;;;-147.17;100.00;-2515.66;4997485;28;51217;-72
2022/06/23 11:02:51;;;;;;;;;8.00;7.33;;;;;-147.17;100.00;-2267.06;4951981;28;51171;-72
2022/06/23 11:05:22;;;;;;;;;7.00;6.67;;;;;-147.17;100.00;-2018.47;4999907;28;51233;-72
2022/06/23 11:08:49;;;;;;;;;6.00;6.00;;;;;-147.17;100.00;-1023.88;5013551;28;52728;-72
2022/06/23 11:11:52;;;;;;;;;9.67;9.67;;;;;-147.17;100.00;-775.19;4991271;28;51147;-71
2022/06/23 11:14:55;;;;;;;;;5.00;5.00;;;;;-147.17;100.00;-277.75;5001725;28;50917;-70
2022/06/23 11:17:51;;;;;;;;;7.00;7.00;;;;;-147.17;100.00;-526.47;5017236;28;51138;-71
2022/06/23 11:20:57;;;;;;;;;9.67;8.67;;;;;-147.17;100.00;468.50;5003452;28;54192;-70
2022/06/23 11:23:47;;;;;;;;;8.33;7.67;;;;;-147.17;100.00;1214.91;5005661;28;51078;-72
2022/06/23 11:26:39;;;;;;;;;9.00;8.33;;;;;-147.17;100.00;1463.72;5014611;28;51212;-71
2022/06/23 11:29:23;;;;;;;;;6.00;6.00;;;;;-147.17;100.00;2957.06;5016384;28;50965;-77
2022/06/23 11:32:25;;;;;;;;;8.67;8.33;;;;;-147.17;100.00;1712.56;5017016;28;52424;-76
2022/06/23 11:35:09;;;;;;;;;8.00;7.67;;;;;-147.17;100.00;-526.47;5014055;28;50970;-74
2022/06/23 11:37:41;;;;;;;;;9.00;8.67;;;;;-147.17;100.00;-775.19;5011008;28;52080;-72
2022/06/23 11:40:32;;;;;;;;;7.67;7.00;;;;;-147.17;100.00;717.28;5002186;28;51294;-73
2022/06/23 11:43:00;;;;;;;;;6.67;6.00;;;;;-147.17;100.00;1961.44;5003287;28;51978;-74
2022/06/23 11:45:56;;;;;;;;;8.67;8.00;;;;;-147.17;100.00;3206.00;5013057;28;51642;-74
2022/06/23 11:48:27;;;;;;;;;10.67;9.33;;;;;-147.17;100.00;3952.94;5004529;28;51495;-77
2022/06/23 11:50:58;;;;;;;;;9.67;7.67;;;;;-147.17;100.00;4700.00;5008763;28;51295;-76
2022/06/23 11:53:44;;;;;;;;;5.33;5.33;;;;;-147.17;100.00;4700.00;5009149;28;51822;-76
2022/06/23 11:56:22;;;;;;;;;10.00;8.33;;;;;-147.17;100.00;5198.13;5012412;28;50978;-76
2022/06/23 11:59:19;;;;;;;;;10.33;9.33;;;;;-147.17;100.00;5945.44;5009952;28;51064;-77
2022/06/23 12:01:44;;;;;;;;;10.33;9.00;;;;;-147.17;100.00;5945.44;5006177;28;51088;-77